Airfield :
LOGIN :

Register | Disclaimer

   EN    FR    IT 

 










Legend :    VFR   Marginal VFR   IFR   Intensive IFR   Very Intensive IFR
Visi :
Ceiling :
>= 8 km
>= 3000ft
5 to 8 km
1000 to 3000 ft
1500m to 5 km
500 to 1000 ft
800 to 1500m
200 to 500 ft
< 800m
< 200 ft
Symbols :   Thunderstorms  Fog  Heavy snow  Heavy precipitations  Wind > 20 kt
SIGMETs :     Misc.  Thunderstorms  Icing  Turbulence  Mountain Waves  Volcanic Ashes






- Airport Elevation : 1363 ft


ETIC - Grafenwohr Army Air Field

CURRENT METAR :
  • 101856Z AUTO 00000KT 9999 CLR 09/06 A2990 RMK AO2 SLP136 T00890058 $

EXPIRED METARs :
  • 101756Z AUTO 00000KT 9999 BKN100 11/06 A2990 RMK AO2 SLP136 T01070063 10139 20107 57008 $
  • 101656Z AUTO 13005KT 9999 BKN110 12/07 A2991 RMK AO2 SLP139 T01190066 $
  • 101556Z AUTO 13007KT 9999 BKN039 BKN080 13/07 A2992 RMK AO2 SLP143 T01340072 $

TAF AMD TAF ETIC
Valid from the 09 at 21:00 until the 11 at 00:00 UTC


092100Z 0921/1024 VRB06KT 9999 FEW190 QNH2992INS
BECMG 0922/0923 22007KT 9999 BKN050 620504 QNH2995INS
BECMG 1005/1006 24010G20KT 9999 BKN030 OVC040 620455 510252 QNH2996INS
TEMPO 1006/1009 5000 -RA OVC020
BECMG 1014/1015 16006KT 9999 SCT050 BKN065 620654 QNH2992INS LAST NO AMENDS AFT 0921 NEXT 1120 TX13/1014Z TN03/1002Z



MET'MAP, your aeronautical weather chart ! - Copyright ORBIFLY December 2007 - Disclaimer

ORBIFLY MET'MAP TEAM :

Programming & Development : Alexandra Zaïnal
Concept & original design : Baudouin d'Aumeries
Assistance for programming : Marc-Olivier Méhu
Technical & hardware support : Manuel Goepfert

Contact : metmap@orbifly.com




SOURCES & CREDITS :

   NOAA